Catàleg de serveis del Meteocat
Campanya meteocatpedra

Dades de l'estació automàtica Sant Martí de Riucorb

?
?
Resum diari 21:30 TU
Dades diàries de l'estació meteorològica
Temperatura mitjana 8.1 °C
Temperatura màxima 10.9 °C 15:22 TU
Temperatura mínima 6.4 °C 7:18 TU
Humitat relativa mitjana 80%
Precipitació acumulada 2.1 mm
Ratxa màxima del vent (2 m) 26.6 km/h - 263º 17:47 TU
Irradiació solar global 5.9 MJ/m2

El tram horari està expressat en Temps Universal (TU). Cal sumar una hora en horari d'hivern i dues en horari d'estiu per passar a l'hora oficial.

Sant Martí de Riucorb

Metadades estació meteorol´gica
Municipi Sant Martí de Riucorb
Comarca Urgell
Altitud 413 m
Data alta 05.02.2002
Estat actual Operativa
Dades de període
Període
TU
TM
°C
TX
°C
TN
°C
HRM
%
PPT
mm
VVM (2 m)
km/h
DVM (2 m)
graus
VVX (2 m)
km/h
RS
W/m2
00:00 - 00:30 7.2 7.4 7.1 79 0.0 4.3 218 11.9 0
00:30 - 01:00 6.9 7.1 6.7 80 0.0 3.6 211 7.2 0
01:00 - 01:30 6.6 6.9 6.4 80 0.0 3.6 213 9.4 0
01:30 - 02:00 6.9 7.0 6.8 79 0.0 5.0 234 10.1 0
02:00 - 02:30 6.7 6.8 6.6 81 0.0 3.6 214 9.4 0
02:30 - 03:00 6.9 6.9 6.8 81 0.0 4.0 199 8.3 0
03:00 - 03:30 6.7 6.9 6.5 82 0.0 4.0 163 7.9 0
03:30 - 04:00 6.5 6.6 6.5 83 0.0 3.2 165 6.5 0
04:00 - 04:30 7.0 7.3 6.6 82 0.0 4.0 171 6.5 0
04:30 - 05:00 7.2 7.4 7.0 81 0.0 2.5 164 5.8 0
05:00 - 05:30 7.2 7.4 6.9 82 0.0 2.9 206 5.4 0
05:30 - 06:00 7.4 7.4 7.3 81 0.0 2.2 204 4.7 0
06:00 - 06:30 7.4 7.6 7.0 81 0.0 1.1 145 5.0 0
06:30 - 07:00 6.9 7.0 6.7 86 0.2 0.4 47 2.9 0
07:00 - 07:30 6.5 6.7 6.4 91 0.7 1.4 107 4.0 4
07:30 - 08:00 6.5 6.6 6.5 93 0.8 2.5 122 5.0 17
08:00 - 08:30 6.8 6.9 6.7 93 0.4 2.9 171 6.1 45
08:30 - 09:00 7.4 7.6 7.0 92 0.0 2.9 237 5.4 109
09:00 - 09:30 7.6 7.7 7.5 91 0.0 4.3 255 8.6 90
09:30 - 10:00 7.6 7.7 7.5 91 0.0 5.0 251 9.4 86
10:00 - 10:30 7.5 7.5 7.4 91 0.0 3.6 254 7.2 74
10:30 - 11:00 7.7 7.8 7.5 91 0.0 4.0 283 9.0 144
11:00 - 11:30 7.8 8.1 7.5 93 0.0 5.0 272 10.1 229
11:30 - 12:00 7.9 8.8 7.7 90 0.0 6.5 264 12.2 250
12:00 - 12:30 8.8 9.2 8.5 84 0.0 7.2 250 14.4 403
12:30 - 13:00 8.6 9.2 8.5 83 0.0 6.8 270 13.0 176
13:00 - 13:30 9.3 10.1 8.8 80 0.0 8.3 258 16.2 337
13:30 - 14:00 10.1 10.6 9.6 77 0.0 10.8 253 19.4 453
14:00 - 14:30 10.2 10.6 9.8 77 0.0 10.8 245 18.4 335
14:30 - 15:00 10.4 10.8 10.1 77 0.0 8.6 239 16.6 270
15:00 - 15:30 10.7 10.9 10.4 76 0.0 6.8 231 13.7 169
15:30 - 16:00 10.7 10.9 10.7 77 0.0 6.5 245 13.7 93
16:00 - 16:30 10.3 10.7 9.7 81 0.0 2.5 210 9.4 32
16:30 - 17:00 9.8 10.5 9.2 81 0.0 6.1 216 15.5 0
17:00 - 17:30 10.1 10.4 9.9 71 0.0 9.7 230 22.0 0
17:30 - 18:00 10.0 10.2 9.8 66 0.0 14.0 241 26.6 0
18:00 - 18:30 9.4 9.7 9.2 66 0.0 11.5 240 20.9 0
18:30 - 19:00 9.0 9.2 8.7 65 0.0 9.4 235 17.6 0
19:00 - 19:30 8.7 8.9 8.6 66 0.0 11.5 245 20.2 0
19:30 - 20:00 8.4 8.7 8.1 66 0.0 7.2 234 15.1 0
20:00 - 20:30 7.9 8.1 7.7 67 0.0 6.5 230 14.4 0
20:30 - 21:00 7.7 7.9 7.5 68 0.0 5.8 227 13.0 0
21:00 - 21:30 7.5 7.7 7.3 68 0.0 5.0 215 10.4 0
21:30 - 22:00 7.3 7.6 7.0 69 0.0 4.0 217 9.4 0

Les dades en taronja només han passat un control de qualitat automàtic. Resta pendent la seva validació definitiva.